<?xml version="1.0" encoding="UTF-8" standalone="no" ?>
<gpx xmlns="http://www.topografix.com/GPX/1/1" creator="MapSource 6.15.11" version="1.1" xmlns:xsi="http://www.w3.org/2001/XMLSchema-instance" xsi:schemaLocation="http://www.topografix.com/GPX/1/1 http://www.topografix.com/GPX/1/1/gpx.xsd">

  <metadata>
    <link href="http://www.garmin.com">
      <text>Garmin International</text>
    </link>
    <time>2014-06-02T15:49:23Z</time>
    <bounds maxlat="47.5776980" maxlon="10.6557101" minlat="47.5620369" minlon="10.6239217"/>
  </metadata>

  <wpt lat="47.5758476" lon="10.6239338">
    <time>2014-06-02T15:45:19Z</time>
    <name>Dreimäderlhaus</name>
    <cmt>Dreimäderlhaus</cmt>
    <desc>Dreimäderlhaus</desc>
    <sym>Lodging</sym>
    <extensions>
      <gpxx:WaypointExtension xmlns:gpxx="http://www.garmin.com/xmlschemas/GpxExtensions/v3">
        <gpxx:DisplayMode>SymbolAndName</gpxx:DisplayMode>
      </gpxx:WaypointExtension>
    </extensions>
  </wpt>

  <wpt lat="47.5620369" lon="10.6412936">
    <time>2014-06-02T15:44:46Z</time>
    <name>Hotel Restaurant Alatsee</name>
    <cmt>Hotel Restaurant Alatsee</cmt>
    <desc>Hotel Restaurant Alatsee</desc>
    <sym>Restaurant</sym>
    <extensions>
      <gpxx:WaypointExtension xmlns:gpxx="http://www.garmin.com/xmlschemas/GpxExtensions/v3">
        <gpxx:DisplayMode>SymbolAndName</gpxx:DisplayMode>
      </gpxx:WaypointExtension>
    </extensions>
  </wpt>

  <trk>
    <name>Aktueller Track: 01 APR 2014 09:49</name>
    <extensions>
      <gpxx:TrackExtension xmlns:gpxx="http://www.garmin.com/xmlschemas/GpxExtensions/v3">
        <gpxx:DisplayColor>White</gpxx:DisplayColor>
      </gpxx:TrackExtension>
    </extensions>
    <trkseg>
      <trkpt lat="47.5627372" lon="10.6400769">
        <ele>879.7400000</ele>
        <time>2014-04-01T09:22:55Z</time>
      </trkpt>
      <trkpt lat="47.5628836" lon="10.6401072">
        <ele>879.7400000</ele>
        <time>2014-04-01T09:23:15Z</time>
      </trkpt>
      <trkpt lat="47.5629107" lon="10.6400790">
        <ele>880.7100000</ele>
        <time>2014-04-01T09:23:44Z</time>
      </trkpt>
      <trkpt lat="47.5629717" lon="10.6400627">
        <ele>880.7100000</ele>
        <time>2014-04-01T09:24:00Z</time>
      </trkpt>
      <trkpt lat="47.5629704" lon="10.6400486">
        <ele>879.2600000</ele>
        <time>2014-04-01T09:24:30Z</time>
      </trkpt>
      <trkpt lat="47.5629754" lon="10.6400453">
        <ele>879.2600000</ele>
        <time>2014-04-01T09:24:35Z</time>
      </trkpt>
      <trkpt lat="47.5629857" lon="10.6400570">
        <ele>879.2600000</ele>
        <time>2014-04-01T09:24:36Z</time>
      </trkpt>
      <trkpt lat="47.5631618" lon="10.6401711">
        <ele>881.6700000</ele>
        <time>2014-04-01T09:24:42Z</time>
      </trkpt>
      <trkpt lat="47.5634245" lon="10.6402184">
        <ele>885.0300000</ele>
        <time>2014-04-01T09:24:48Z</time>
      </trkpt>
      <trkpt lat="47.5637304" lon="10.6399772">
        <ele>887.9100000</ele>
        <time>2014-04-01T09:24:55Z</time>
      </trkpt>
      <trkpt lat="47.5642936" lon="10.6398088">
        <ele>884.0700000</ele>
        <time>2014-04-01T09:25:05Z</time>
      </trkpt>
      <trkpt lat="47.5644979" lon="10.6397940">
        <ele>880.7100000</ele>
        <time>2014-04-01T09:25:08Z</time>
      </trkpt>
      <trkpt lat="47.5646511" lon="10.6397980">
        <ele>877.3400000</ele>
        <time>2014-04-01T09:25:10Z</time>
      </trkpt>
      <trkpt lat="47.5649060" lon="10.6398734">
        <ele>873.9800000</ele>
        <time>2014-04-01T09:25:13Z</time>
      </trkpt>
      <trkpt lat="47.5651996" lon="10.6401142">
        <ele>871.0900000</ele>
        <time>2014-04-01T09:25:16Z</time>
      </trkpt>
      <trkpt lat="47.5655639" lon="10.6405002">
        <ele>867.7300000</ele>
        <time>2014-04-01T09:25:20Z</time>
      </trkpt>
      <trkpt lat="47.5657319" lon="10.6407129">
        <ele>866.2900000</ele>
        <time>2014-04-01T09:25:22Z</time>
      </trkpt>
      <trkpt lat="47.5658084" lon="10.6408435">
        <ele>865.3200000</ele>
        <time>2014-04-01T09:25:23Z</time>
      </trkpt>
      <trkpt lat="47.5658783" lon="10.6409612">
        <ele>865.3200000</ele>
        <time>2014-04-01T09:25:24Z</time>
      </trkpt>
      <trkpt lat="47.5659948" lon="10.6411983">
        <ele>863.4000000</ele>
        <time>2014-04-01T09:25:26Z</time>
      </trkpt>
      <trkpt lat="47.5659226" lon="10.6427296">
        <ele>861.4800000</ele>
        <time>2014-04-01T09:25:31Z</time>
      </trkpt>
      <trkpt lat="47.5660402" lon="10.6431840">
        <ele>859.5600000</ele>
        <time>2014-04-01T09:25:34Z</time>
      </trkpt>
      <trkpt lat="47.5663429" lon="10.6445372">
        <ele>856.6700000</ele>
        <time>2014-04-01T09:25:44Z</time>
      </trkpt>
      <trkpt lat="47.5663668" lon="10.6446661">
        <ele>856.6700000</ele>
        <time>2014-04-01T09:25:45Z</time>
      </trkpt>
      <trkpt lat="47.5664394" lon="10.6450529">
        <ele>853.7900000</ele>
        <time>2014-04-01T09:25:48Z</time>
      </trkpt>
      <trkpt lat="47.5665082" lon="10.6460864">
        <ele>849.9400000</ele>
        <time>2014-04-01T09:25:56Z</time>
      </trkpt>
      <trkpt lat="47.5665044" lon="10.6462170">
        <ele>849.9400000</ele>
        <time>2014-04-01T09:25:57Z</time>
      </trkpt>
      <trkpt lat="47.5665191" lon="10.6466326">
        <ele>847.0600000</ele>
        <time>2014-04-01T09:26:00Z</time>
      </trkpt>
      <trkpt lat="47.5665254" lon="10.6467716">
        <ele>847.0600000</ele>
        <time>2014-04-01T09:26:01Z</time>
      </trkpt>
      <trkpt lat="47.5665647" lon="10.6470305">
        <ele>845.1400000</ele>
        <time>2014-04-01T09:26:03Z</time>
      </trkpt>
      <trkpt lat="47.5666661" lon="10.6474090">
        <ele>841.2900000</ele>
        <time>2014-04-01T09:26:06Z</time>
      </trkpt>
      <trkpt lat="47.5667395" lon="10.6476562">
        <ele>836.9600000</ele>
        <time>2014-04-01T09:26:08Z</time>
      </trkpt>
      <trkpt lat="47.5668067" lon="10.6479189">
        <ele>833.6000000</ele>
        <time>2014-04-01T09:26:10Z</time>
      </trkpt>
      <trkpt lat="47.5668703" lon="10.6482193">
        <ele>830.2400000</ele>
        <time>2014-04-01T09:26:12Z</time>
      </trkpt>
      <trkpt lat="47.5669739" lon="10.6486798">
        <ele>827.3500000</ele>
        <time>2014-04-01T09:26:15Z</time>
      </trkpt>
      <trkpt lat="47.5670543" lon="10.6488442">
        <ele>825.9100000</ele>
        <time>2014-04-01T09:26:16Z</time>
      </trkpt>
      <trkpt lat="47.5672422" lon="10.6492652">
        <ele>823.9900000</ele>
        <time>2014-04-01T09:26:19Z</time>
      </trkpt>
      <trkpt lat="47.5673299" lon="10.6493799">
        <ele>823.9900000</ele>
        <time>2014-04-01T09:26:20Z</time>
      </trkpt>
      <trkpt lat="47.5674569" lon="10.6496061">
        <ele>823.0300000</ele>
        <time>2014-04-01T09:26:22Z</time>
      </trkpt>
      <trkpt lat="47.5676158" lon="10.6499769">
        <ele>817.7400000</ele>
        <time>2014-04-01T09:26:25Z</time>
      </trkpt>
      <trkpt lat="47.5677721" lon="10.6505968">
        <ele>813.8900000</ele>
        <time>2014-04-01T09:26:29Z</time>
      </trkpt>
      <trkpt lat="47.5679599" lon="10.6511733">
        <ele>810.5300000</ele>
        <time>2014-04-01T09:26:33Z</time>
      </trkpt>
      <trkpt lat="47.5680602" lon="10.6516062">
        <ele>808.6100000</ele>
        <time>2014-04-01T09:26:36Z</time>
      </trkpt>
      <trkpt lat="47.5681197" lon="10.6521600">
        <ele>806.6800000</ele>
        <time>2014-04-01T09:26:40Z</time>
      </trkpt>
      <trkpt lat="47.5682052" lon="10.6534766">
        <ele>802.3600000</ele>
        <time>2014-04-01T09:26:50Z</time>
      </trkpt>
      <trkpt lat="47.5682257" lon="10.6538493">
        <ele>800.4400000</ele>
        <time>2014-04-01T09:26:53Z</time>
      </trkpt>
      <trkpt lat="47.5682331" lon="10.6541985">
        <ele>798.9900000</ele>
        <time>2014-04-01T09:26:56Z</time>
      </trkpt>
      <trkpt lat="47.5682576" lon="10.6543013">
        <ele>798.9900000</ele>
        <time>2014-04-01T09:26:57Z</time>
      </trkpt>
      <trkpt lat="47.5682998" lon="10.6543947">
        <ele>799.4700000</ele>
        <time>2014-04-01T09:26:58Z</time>
      </trkpt>
      <trkpt lat="47.5683527" lon="10.6544816">
        <ele>799.4700000</ele>
        <time>2014-04-01T09:26:59Z</time>
      </trkpt>
      <trkpt lat="47.5684099" lon="10.6545639">
        <ele>799.4700000</ele>
        <time>2014-04-01T09:27:00Z</time>
      </trkpt>
      <trkpt lat="47.5684710" lon="10.6546439">
        <ele>799.4700000</ele>
        <time>2014-04-01T09:27:01Z</time>
      </trkpt>
      <trkpt lat="47.5685361" lon="10.6547232">
        <ele>797.0700000</ele>
        <time>2014-04-01T09:27:02Z</time>
      </trkpt>
      <trkpt lat="47.5686698" lon="10.6548718">
        <ele>796.5900000</ele>
        <time>2014-04-01T09:27:04Z</time>
      </trkpt>
      <trkpt lat="47.5689340" lon="10.6549873">
        <ele>796.5900000</ele>
        <time>2014-04-01T09:27:07Z</time>
      </trkpt>
      <trkpt lat="47.5705451" lon="10.6556353">
        <ele>794.6700000</ele>
        <time>2014-04-01T09:27:23Z</time>
      </trkpt>
      <trkpt lat="47.5726752" lon="10.6557101">
        <ele>795.1500000</ele>
        <time>2014-04-01T09:27:43Z</time>
      </trkpt>
      <trkpt lat="47.5732581" lon="10.6555613">
        <ele>795.1500000</ele>
        <time>2014-04-01T09:27:53Z</time>
      </trkpt>
      <trkpt lat="47.5733513" lon="10.6554843">
        <ele>795.1500000</ele>
        <time>2014-04-01T09:27:58Z</time>
      </trkpt>
      <trkpt lat="47.5733646" lon="10.6554257">
        <ele>795.1500000</ele>
        <time>2014-04-01T09:27:59Z</time>
      </trkpt>
      <trkpt lat="47.5733737" lon="10.6553517">
        <ele>796.5900000</ele>
        <time>2014-04-01T09:28:00Z</time>
      </trkpt>
      <trkpt lat="47.5733783" lon="10.6552689">
        <ele>796.1100000</ele>
        <time>2014-04-01T09:28:01Z</time>
      </trkpt>
      <trkpt lat="47.5733784" lon="10.6551667">
        <ele>796.1100000</ele>
        <time>2014-04-01T09:28:02Z</time>
      </trkpt>
      <trkpt lat="47.5733739" lon="10.6550571">
        <ele>796.1100000</ele>
        <time>2014-04-01T09:28:03Z</time>
      </trkpt>
      <trkpt lat="47.5732682" lon="10.6541426">
        <ele>795.6300000</ele>
        <time>2014-04-01T09:28:10Z</time>
      </trkpt>
      <trkpt lat="47.5731268" lon="10.6531958">
        <ele>797.0700000</ele>
        <time>2014-04-01T09:28:14Z</time>
      </trkpt>
      <trkpt lat="47.5729388" lon="10.6513796">
        <ele>797.0700000</ele>
        <time>2014-04-01T09:28:21Z</time>
      </trkpt>
      <trkpt lat="47.5726531" lon="10.6473924">
        <ele>797.0700000</ele>
        <time>2014-04-01T09:28:38Z</time>
      </trkpt>
      <trkpt lat="47.5726743" lon="10.6471957">
        <ele>798.5100000</ele>
        <time>2014-04-01T09:28:39Z</time>
      </trkpt>
      <trkpt lat="47.5727129" lon="10.6470024">
        <ele>797.5500000</ele>
        <time>2014-04-01T09:28:40Z</time>
      </trkpt>
      <trkpt lat="47.5727694" lon="10.6468191">
        <ele>797.5500000</ele>
        <time>2014-04-01T09:28:41Z</time>
      </trkpt>
      <trkpt lat="47.5728502" lon="10.6466479">
        <ele>797.5500000</ele>
        <time>2014-04-01T09:28:42Z</time>
      </trkpt>
      <trkpt lat="47.5729563" lon="10.6464920">
        <ele>797.5500000</ele>
        <time>2014-04-01T09:28:43Z</time>
      </trkpt>
      <trkpt lat="47.5730810" lon="10.6463412">
        <ele>797.5500000</ele>
        <time>2014-04-01T09:28:44Z</time>
      </trkpt>
      <trkpt lat="47.5732133" lon="10.6461928">
        <ele>797.5500000</ele>
        <time>2014-04-01T09:28:45Z</time>
      </trkpt>
      <trkpt lat="47.5740679" lon="10.6452281">
        <ele>798.9900000</ele>
        <time>2014-04-01T09:28:51Z</time>
      </trkpt>
      <trkpt lat="47.5746197" lon="10.6445497">
        <ele>798.9900000</ele>
        <time>2014-04-01T09:28:55Z</time>
      </trkpt>
      <trkpt lat="47.5747309" lon="10.6443549">
        <ele>799.4700000</ele>
        <time>2014-04-01T09:28:56Z</time>
      </trkpt>
      <trkpt lat="47.5748301" lon="10.6441410">
        <ele>799.4700000</ele>
        <time>2014-04-01T09:28:57Z</time>
      </trkpt>
      <trkpt lat="47.5749127" lon="10.6439166">
        <ele>799.4700000</ele>
        <time>2014-04-01T09:28:58Z</time>
      </trkpt>
      <trkpt lat="47.5749748" lon="10.6436825">
        <ele>799.4700000</ele>
        <time>2014-04-01T09:28:59Z</time>
      </trkpt>
      <trkpt lat="47.5750203" lon="10.6434365">
        <ele>799.4700000</ele>
        <time>2014-04-01T09:29:00Z</time>
      </trkpt>
      <trkpt lat="47.5750372" lon="10.6431684">
        <ele>799.4700000</ele>
        <time>2014-04-01T09:29:01Z</time>
      </trkpt>
      <trkpt lat="47.5750323" lon="10.6428879">
        <ele>799.4700000</ele>
        <time>2014-04-01T09:29:02Z</time>
      </trkpt>
      <trkpt lat="47.5749961" lon="10.6426078">
        <ele>799.4700000</ele>
        <time>2014-04-01T09:29:03Z</time>
      </trkpt>
      <trkpt lat="47.5749434" lon="10.6423302">
        <ele>799.4700000</ele>
        <time>2014-04-01T09:29:04Z</time>
      </trkpt>
      <trkpt lat="47.5748731" lon="10.6420578">
        <ele>799.4700000</ele>
        <time>2014-04-01T09:29:05Z</time>
      </trkpt>
      <trkpt lat="47.5747953" lon="10.6417897">
        <ele>800.4400000</ele>
        <time>2014-04-01T09:29:06Z</time>
      </trkpt>
      <trkpt lat="47.5739147" lon="10.6397206">
        <ele>804.7600000</ele>
        <time>2014-04-01T09:29:15Z</time>
      </trkpt>
      <trkpt lat="47.5738411" lon="10.6395229">
        <ele>804.7600000</ele>
        <time>2014-04-01T09:29:16Z</time>
      </trkpt>
      <trkpt lat="47.5737824" lon="10.6393201">
        <ele>805.2400000</ele>
        <time>2014-04-01T09:29:17Z</time>
      </trkpt>
      <trkpt lat="47.5737369" lon="10.6391130">
        <ele>806.2000000</ele>
        <time>2014-04-01T09:29:18Z</time>
      </trkpt>
      <trkpt lat="47.5737130" lon="10.6389011">
        <ele>806.2000000</ele>
        <time>2014-04-01T09:29:19Z</time>
      </trkpt>
      <trkpt lat="47.5737049" lon="10.6386983">
        <ele>806.6800000</ele>
        <time>2014-04-01T09:29:20Z</time>
      </trkpt>
      <trkpt lat="47.5737087" lon="10.6385029">
        <ele>808.1300000</ele>
        <time>2014-04-01T09:29:21Z</time>
      </trkpt>
      <trkpt lat="47.5737410" lon="10.6381330">
        <ele>808.6100000</ele>
        <time>2014-04-01T09:29:23Z</time>
      </trkpt>
      <trkpt lat="47.5737712" lon="10.6379512">
        <ele>809.0900000</ele>
        <time>2014-04-01T09:29:24Z</time>
      </trkpt>
      <trkpt lat="47.5738062" lon="10.6377700">
        <ele>809.0900000</ele>
        <time>2014-04-01T09:29:25Z</time>
      </trkpt>
      <trkpt lat="47.5738503" lon="10.6375931">
        <ele>809.0900000</ele>
        <time>2014-04-01T09:29:26Z</time>
      </trkpt>
      <trkpt lat="47.5739059" lon="10.6374190">
        <ele>809.0900000</ele>
        <time>2014-04-01T09:29:27Z</time>
      </trkpt>
      <trkpt lat="47.5739626" lon="10.6372442">
        <ele>809.0900000</ele>
        <time>2014-04-01T09:29:28Z</time>
      </trkpt>
      <trkpt lat="47.5750548" lon="10.6352858">
        <ele>806.6800000</ele>
        <time>2014-04-01T09:29:39Z</time>
      </trkpt>
      <trkpt lat="47.5753164" lon="10.6348873">
        <ele>805.2400000</ele>
        <time>2014-04-01T09:29:41Z</time>
      </trkpt>
      <trkpt lat="47.5757287" lon="10.6342356">
        <ele>802.3600000</ele>
        <time>2014-04-01T09:29:44Z</time>
      </trkpt>
      <trkpt lat="47.5758655" lon="10.6340175">
        <ele>802.3600000</ele>
        <time>2014-04-01T09:29:45Z</time>
      </trkpt>
      <trkpt lat="47.5764728" lon="10.6328231">
        <ele>799.4700000</ele>
        <time>2014-04-01T09:29:50Z</time>
      </trkpt>
      <trkpt lat="47.5765503" lon="10.6325551">
        <ele>799.4700000</ele>
        <time>2014-04-01T09:29:51Z</time>
      </trkpt>
      <trkpt lat="47.5767964" lon="10.6314862">
        <ele>798.0300000</ele>
        <time>2014-04-01T09:29:55Z</time>
      </trkpt>
      <trkpt lat="47.5774725" lon="10.6288741">
        <ele>797.5500000</ele>
        <time>2014-04-01T09:30:08Z</time>
      </trkpt>
      <trkpt lat="47.5776980" lon="10.6271332">
        <ele>797.0700000</ele>
        <time>2014-04-01T09:30:18Z</time>
      </trkpt>
      <trkpt lat="47.5772855" lon="10.6252873">
        <ele>798.5100000</ele>
        <time>2014-04-01T09:30:28Z</time>
      </trkpt>
      <trkpt lat="47.5769991" lon="10.6244199">
        <ele>801.8800000</ele>
        <time>2014-04-01T09:30:33Z</time>
      </trkpt>
      <trkpt lat="47.5769113" lon="10.6242753">
        <ele>802.3600000</ele>
        <time>2014-04-01T09:30:34Z</time>
      </trkpt>
      <trkpt lat="47.5768141" lon="10.6241511">
        <ele>803.3200000</ele>
        <time>2014-04-01T09:30:35Z</time>
      </trkpt>
      <trkpt lat="47.5767120" lon="10.6240574">
        <ele>803.8000000</ele>
        <time>2014-04-01T09:30:36Z</time>
      </trkpt>
      <trkpt lat="47.5766044" lon="10.6239974">
        <ele>805.2400000</ele>
        <time>2014-04-01T09:30:37Z</time>
      </trkpt>
      <trkpt lat="47.5764998" lon="10.6239546">
        <ele>806.2000000</ele>
        <time>2014-04-01T09:30:38Z</time>
      </trkpt>
      <trkpt lat="47.5763963" lon="10.6239565">
        <ele>806.2000000</ele>
        <time>2014-04-01T09:30:39Z</time>
      </trkpt>
      <trkpt lat="47.5763184" lon="10.6239738">
        <ele>805.7200000</ele>
        <time>2014-04-01T09:30:40Z</time>
      </trkpt>
      <trkpt lat="47.5762603" lon="10.6240010">
        <ele>805.7200000</ele>
        <time>2014-04-01T09:30:41Z</time>
      </trkpt>
      <trkpt lat="47.5762112" lon="10.6240234">
        <ele>805.7200000</ele>
        <time>2014-04-01T09:30:42Z</time>
      </trkpt>
      <trkpt lat="47.5761721" lon="10.6240411">
        <ele>807.6400000</ele>
        <time>2014-04-01T09:30:52Z</time>
      </trkpt>
      <trkpt lat="47.5761582" lon="10.6240031">
        <ele>807.1600000</ele>
        <time>2014-04-01T09:31:09Z</time>
      </trkpt>
      <trkpt lat="47.5763190" lon="10.6239217">
        <ele>807.1600000</ele>
        <time>2014-04-01T09:31:17Z</time>
      </trkpt>
      <trkpt lat="47.5763391" lon="10.6239431">
        <ele>807.1600000</ele>
        <time>2014-04-01T09:31:18Z</time>
      </trkpt>
      <trkpt lat="47.5763690" lon="10.6239864">
        <ele>807.1600000</ele>
        <time>2014-04-01T09:31:19Z</time>
      </trkpt>
      <trkpt lat="47.5763941" lon="10.6240258">
        <ele>807.1600000</ele>
        <time>2014-04-01T09:31:20Z</time>
      </trkpt>
      <trkpt lat="47.5763989" lon="10.6240442">
        <ele>807.1600000</ele>
        <time>2014-04-01T09:31:21Z</time>
      </trkpt>
      <trkpt lat="47.5763893" lon="10.6240613">
        <ele>807.1600000</ele>
        <time>2014-04-01T09:31:22Z</time>
      </trkpt>
      <trkpt lat="47.5763613" lon="10.6241639">
        <ele>811.0100000</ele>
        <time>2014-04-01T09:31:44Z</time>
      </trkpt>
      <trkpt lat="47.5763595" lon="10.6241679">
        <ele>809.0900000</ele>
        <time>2014-04-01T09:31:45Z</time>
      </trkpt>
      <trkpt lat="47.5763559" lon="10.6241758">
        <ele>807.6400000</ele>
        <time>2014-04-01T09:31:47Z</time>
      </trkpt>
      <trkpt lat="47.5762539" lon="10.6241202">
        <ele>807.1600000</ele>
        <time>2014-04-01T09:32:25Z</time>
      </trkpt>
      <trkpt lat="47.5762062" lon="10.6239532">
        <ele>807.1600000</ele>
        <time>2014-04-01T09:32:32Z</time>
      </trkpt>
    </trkseg>
  </trk>

</gpx>
